This is the latest recevied weather packets stored in our database for station/object HG8LXL-2. If no packets are shown the sender has not sent any weather packets the latest 10 day(s).
| Time | Temp. | Humidity | Pressure | Rain* | Wind** | Luminosity | Snow |
|---|---|---|---|---|---|---|---|
| 1777952404 | 15.56° C | 40% | 1011.7 hPa | - | - | - | - |
| 1777952102 | 15.56° C | 41% | 1011.7 hPa | - | - | - | - |
| 1777951802 | 15° C | 41% | 1011.7 hPa | - | - | - | - |
| 1777951502 | 15° C | 41% | 1011.6 hPa | - | - | - | - |
| 1777951202 | 15° C | 42% | 1011.8 hPa | - | - | - | - |
| 1777950902 | 15° C | 42% | 1011.7 hPa | - | - | - | - |
| 1777950602 | 15° C | 41% | 1011.8 hPa | - | - | - | - |
| 1777950302 | 15° C | 42% | 1011.8 hPa | - | - | - | - |
| 1777950002 | 15° C | 40% | 1011.7 hPa | - | - | - | - |
| 1777947602 | 15.56° C | 40% | 1011.7 hPa | - | - | - | - |
| 1777947302 | 15.56° C | 41% | 1011.9 hPa | - | - | - | - |
| 1777947002 | 15.56° C | 41% | 1011.8 hPa | - | - | - | - |
| 1777946703 | 15.56° C | 40% | 1011.9 hPa | - | - | - | - |
| 1777938902 | 17.22° C | 35% | 1012.1 hPa | - | - | - | - |
| 1777938602 | 17.22° C | 34% | 1012.1 hPa | - | - | - | - |
| 1777938302 | 17.22° C | 35% | 1012.3 hPa | - | - | - | - |
| 1777938002 | 17.78° C | 34% | 1012.2 hPa | - | - | - | - |
| 1777937702 | 17.22° C | 34% | 1012.3 hPa | - | - | - | - |
| 1777937402 | 17.22° C | 34% | 1012.3 hPa | - | - | - | - |
| 1777937102 | 17.22° C | 34% | 1012.3 hPa | - | - | - | - |
| 1777932902 | 18.89° C | 31% | 1012.6 hPa | - | - | - | - |
| 1777932602 | 18.89° C | 30% | 1012.6 hPa | - | - | - | - |
| 1777932302 | 19.44° C | 30% | 1012.5 hPa | - | - | - | - |
| 1777932002 | 18.89° C | 30% | 1012.6 hPa | - | - | - | - |
| 1777931702 | 19.44° C | 29% | 1012.6 hPa | - | - | - | - |
* Rain since midnight (hover to see other rain measurements)
** Current wind speed in m/s (hover to see current wind gust speed)